createdAt,value
2023-04-15T00:02:01.254Z,58.51
2023-04-15T00:04:31.703Z,59.25
2023-04-15T00:06:59.151Z,58.69
2023-04-15T00:09:26.408Z,58.15
2023-04-15T00:11:53.616Z,59.23
2023-04-15T00:14:21.047Z,58.35
2023-04-15T00:16:55.158Z,59.23
2023-04-15T00:19:22.948Z,60.15
2023-04-15T00:21:50.091Z,61.18
2023-04-15T00:24:17.237Z,60.90
2023-04-15T00:26:44.480Z,60.72
2023-04-15T00:29:11.633Z,60.29
2023-04-15T00:31:38.772Z,59.81
2023-04-15T00:34:11.784Z,59.32
2023-04-15T00:36:39.409Z,59.93
2023-04-15T00:39:07.944Z,59.72
2023-04-15T00:41:35.182Z,59.09
2023-04-15T00:44:02.929Z,58.02
2023-04-15T00:46:33.719Z,58.74
2023-04-15T00:49:03.322Z,58.43
2023-04-15T00:51:31.549Z,59.79
2023-04-15T00:54:08.478Z,57.95
2023-04-15T00:56:38.597Z,57.61
2023-04-15T00:59:07.113Z,58.73
2023-04-15T01:01:38.626Z,59.29
2023-04-15T01:04:06.981Z,58.02
2023-04-15T01:06:34.432Z,57.62
2023-04-15T01:09:02.371Z,57.70
2023-04-15T01:11:34.470Z,61.16
2023-04-15T01:14:02.806Z,62.99
2023-04-15T01:16:30.267Z,63.52
2023-04-15T01:18:58.985Z,63.82
2023-04-15T01:21:26.852Z,64.24
2023-04-15T01:23:59.476Z,64.94
2023-04-15T01:26:27.373Z,63.95
2023-04-15T01:28:54.775Z,61.92
2023-04-15T01:31:22.227Z,62.15
2023-04-15T01:33:49.365Z,63.32
2023-04-15T01:36:36.733Z,62.49
2023-04-15T01:39:04.415Z,62.10
2023-04-15T01:41:34.056Z,61.45
2023-04-15T01:44:07.126Z,62.06
2023-04-15T01:46:37.195Z,62.04
2023-04-15T01:49:06.240Z,62.25
2023-04-15T01:51:34.752Z,62.33
2023-04-15T01:54:03.267Z,62.73
2023-04-15T01:56:32.089Z,62.63
2023-04-15T01:59:00.753Z,62.97
2023-04-15T02:01:29.493Z,62.34
2023-04-15T02:04:01.174Z,61.82
2023-04-15T02:06:29.671Z,62.17
2023-04-15T02:08:59.234Z,63.72
2023-04-15T02:11:27.803Z,64.94
2023-04-15T02:13:56.482Z,65.00
2023-04-15T02:16:27.173Z,65.12
2023-04-15T02:18:55.772Z,65.64
2023-04-15T02:21:24.129Z,65.69
2023-04-15T02:23:57.937Z,65.42
2023-04-15T02:26:27.551Z,65.39
2023-04-15T02:28:56.414Z,65.42
2023-04-15T02:31:26.021Z,65.16
2023-04-15T02:33:54.480Z,65.42
2023-04-15T02:36:23.944Z,63.83
2023-04-15T02:38:52.896Z,63.45
2023-04-15T02:41:25.814Z,63.61
2023-04-15T02:43:55.035Z,62.50
2023-04-15T02:46:24.300Z,62.12
2023-04-15T02:48:53.892Z,62.16
2023-04-15T02:51:23.672Z,64.03
2023-04-15T02:53:52.061Z,64.37
2023-04-15T02:56:20.746Z,64.05
2023-04-15T02:58:50.692Z,64.15
2023-04-15T03:01:20.566Z,64.00
2023-04-15T03:03:49.436Z,64.15
2023-04-15T03:06:18.348Z,63.48
2023-04-15T03:08:48.104Z,63.23
2023-04-15T03:11:17.131Z,63.13
2023-04-15T03:13:45.956Z,61.59
2023-04-15T03:16:27.236Z,61.43
2023-04-15T03:18:55.688Z,61.84
2023-04-15T03:21:26.718Z,62.24
2023-04-15T03:23:58.300Z,62.26
2023-04-15T03:26:32.131Z,63.77
2023-04-15T03:29:04.259Z,62.76
2023-04-15T03:31:33.004Z,62.08
2023-04-15T03:34:26.822Z,62.55
2023-04-15T03:36:56.332Z,61.90
2023-04-15T03:39:24.787Z,62.88
2023-04-15T03:41:53.136Z,63.91
2023-04-15T03:44:24.577Z,63.99
2023-04-15T03:46:53.961Z,62.70
2023-04-15T03:49:23.261Z,61.88
2023-04-15T03:51:51.644Z,62.52
2023-04-15T03:54:20.123Z,62.14
2023-04-15T03:56:48.490Z,61.91
2023-04-15T03:59:16.918Z,63.70
2023-04-15T04:01:45.822Z,63.38
2023-04-15T04:04:14.451Z,64.31
2023-04-15T04:06:43.140Z,63.77
2023-04-15T04:09:11.603Z,62.26
2023-04-15T04:11:39.996Z,62.45
2023-04-15T04:14:08.360Z,63.88
2023-04-15T04:16:36.817Z,63.47
2023-04-15T04:19:05.185Z,63.72
2023-04-15T04:21:34.257Z,64.73
2023-04-15T04:24:03.343Z,64.27
2023-04-15T04:26:31.689Z,63.86
2023-04-15T04:29:00.570Z,63.98
2023-04-15T04:31:29.493Z,63.17
2023-04-15T04:34:35.230Z,63.37
2023-04-15T04:37:10.046Z,63.46
2023-04-15T04:39:38.623Z,62.30
2023-04-15T04:42:06.953Z,62.47
2023-04-15T04:44:35.398Z,63.35
2023-04-15T04:47:03.748Z,63.56
2023-04-15T04:49:32.154Z,62.87
2023-04-15T04:52:00.759Z,63.27
2023-04-15T04:54:30.724Z,63.66
2023-04-15T04:56:59.308Z,63.68
2023-04-15T04:59:28.097Z,62.18
2023-04-15T05:01:56.501Z,61.86
2023-04-15T05:04:24.978Z,60.79
2023-04-15T05:06:53.380Z,60.54
2023-04-15T05:09:21.857Z,61.00
2023-04-15T05:11:50.406Z,60.95
2023-04-15T05:14:18.788Z,60.14
2023-04-15T05:16:47.345Z,59.85
2023-04-15T05:19:15.894Z,60.34
2023-04-15T05:21:44.390Z,60.16
2023-04-15T05:24:13.440Z,59.23
2023-04-15T05:26:42.917Z,56.43
2023-04-15T05:29:11.366Z,56.20
2023-04-15T05:31:39.855Z,56.13
2023-04-15T05:34:33.251Z,56.76
2023-04-15T05:37:02.337Z,57.37
2023-04-15T05:39:37.483Z,57.24
2023-04-15T05:42:06.290Z,56.40
2023-04-15T05:44:34.708Z,56.79
2023-04-15T05:47:03.978Z,55.02
2023-04-15T05:49:32.618Z,53.11
2023-04-15T05:52:01.284Z,49.93
2023-04-15T05:54:29.902Z,46.20
2023-04-15T05:56:58.979Z,44.70
2023-04-15T05:59:28.431Z,43.26
2023-04-15T06:01:57.446Z,42.41
2023-04-15T06:04:26.083Z,41.17
2023-04-15T06:06:54.655Z,40.41
2023-04-15T06:09:23.037Z,38.94
2023-04-15T06:11:53.704Z,38.25
2023-04-15T06:14:22.361Z,36.20
2023-04-15T06:16:51.338Z,35.52
2023-04-15T06:19:20.317Z,33.95
2023-04-15T06:21:48.890Z,32.17
2023-04-15T06:24:17.933Z,33.18
2023-04-15T06:26:46.523Z,33.64
2023-04-15T06:29:14.897Z,32.31
2023-04-15T06:31:43.377Z,32.08
2023-04-15T06:34:17.881Z,32.05
2023-04-15T06:36:46.906Z,31.36
2023-04-15T06:39:15.417Z,30.05
2023-04-15T06:41:43.987Z,29.02
2023-04-15T06:44:14.134Z,26.85
2023-04-15T06:46:42.990Z,25.04
2023-04-15T06:49:12.225Z,23.95
2023-04-15T06:51:42.811Z,24.66
2023-04-15T06:54:11.485Z,27.27
2023-04-15T06:56:39.988Z,28.26
2023-04-15T06:59:08.785Z,30.43
2023-04-15T07:01:37.685Z,31.01
2023-04-15T07:04:06.340Z,30.77
2023-04-15T07:06:35.640Z,31.56
2023-04-15T07:09:05.558Z,31.67
2023-04-15T07:11:34.654Z,32.12
2023-04-15T07:14:03.544Z,32.38
2023-04-15T07:16:32.553Z,33.35
2023-04-15T07:19:01.370Z,35.24
2023-04-15T07:21:30.682Z,35.93
2023-04-15T07:23:59.550Z,37.71
2023-04-15T07:26:28.651Z,37.59
2023-04-15T07:28:57.265Z,37.48
2023-04-15T07:31:25.734Z,37.51
2023-04-15T07:33:54.264Z,36.04
2023-04-15T07:36:23.299Z,33.26
2023-04-15T07:38:55.383Z,30.79
2023-04-15T07:41:24.147Z,28.65
2023-04-15T07:43:52.597Z,27.83
2023-04-15T07:46:21.643Z,26.59
2023-04-15T07:48:50.918Z,24.39
2023-04-15T07:51:21.283Z,24.81
2023-04-15T07:53:50.601Z,24.51
2023-04-15T07:56:19.095Z,25.45
2023-04-15T07:58:51.622Z,24.22
2023-04-15T08:01:21.637Z,21.99
2023-04-15T08:03:51.210Z,20.80
2023-04-15T08:06:19.668Z,20.09
2023-04-15T08:08:48.290Z,17.87
2023-04-15T08:11:17.181Z,16.83
2023-04-15T08:13:46.887Z,16.46
2023-04-15T08:16:24.564Z,16.47
2023-04-15T08:18:56.198Z,16.52
2023-04-15T08:21:25.304Z,15.44
2023-04-15T08:23:57.863Z,15.77
2023-04-15T08:26:27.148Z,15.68
2023-04-15T08:28:56.585Z,14.59
2023-04-15T08:31:29.790Z,15.80
2023-04-15T08:33:59.300Z,15.28
2023-04-15T08:36:27.684Z,14.42
2023-04-15T08:38:57.244Z,14.53
2023-04-15T08:41:27.446Z,14.87
2023-04-15T08:44:05.399Z,14.57
2023-04-15T08:46:35.018Z,14.85
2023-04-15T08:49:14.463Z,12.46
2023-04-15T08:51:43.480Z,11.21
2023-04-15T08:54:12.526Z,10.95
2023-04-15T08:56:41.041Z,10.54
2023-04-15T08:59:11.162Z,10.38
2023-04-15T09:01:41.211Z,10.68
2023-04-15T09:04:12.530Z,11.42
2023-04-15T09:06:41.661Z,10.63
2023-04-15T09:09:10.198Z,11.04
2023-04-15T09:11:39.039Z,10.71
2023-04-15T09:14:07.667Z,10.51
2023-04-15T09:17:02.569Z,10.76
2023-04-15T09:19:33.524Z,11.23
2023-04-15T09:22:07.804Z,11.85
2023-04-15T09:24:40.918Z,11.70
2023-04-15T09:27:09.647Z,11.83
2023-04-15T09:29:38.607Z,11.48
2023-04-15T09:32:15.541Z,11.29
2023-04-15T09:34:45.245Z,10.66
2023-04-15T09:37:41.903Z,11.00
2023-04-15T09:40:16.409Z,12.28
2023-04-15T09:43:01.351Z,12.19
2023-04-15T09:45:30.419Z,11.80
2023-04-15T09:48:27.133Z,12.69
2023-04-15T09:51:00.511Z,14.34
2023-04-15T09:53:31.258Z,14.84
2023-04-15T09:56:02.632Z,15.94
2023-04-15T09:58:35.122Z,16.10
2023-04-15T10:04:04.674Z,15.83
2023-04-15T10:06:35.509Z,15.37
2023-04-15T10:09:04.378Z,15.55
2023-04-15T10:11:35.879Z,17.61
2023-04-15T10:14:06.055Z,19.80
2023-04-15T10:16:42.595Z,19.22
2023-04-15T10:19:12.234Z,18.98
2023-04-15T10:21:41.644Z,19.24
2023-04-15T10:24:10.911Z,19.82
2023-04-15T10:26:39.749Z,19.19
2023-04-15T10:29:09.844Z,17.75
2023-04-15T10:31:41.555Z,15.31
2023-04-15T10:34:12.961Z,15.94
2023-04-15T10:36:42.368Z,15.74
2023-04-15T10:39:33.973Z,15.14
2023-04-15T10:42:18.177Z,15.39
2023-04-15T10:44:51.954Z,16.00
2023-04-15T10:47:22.310Z,15.95
2023-04-15T10:49:59.228Z,16.44
2023-04-15T10:52:29.716Z,16.27
2023-04-15T10:55:31.720Z,14.41
2023-04-15T10:58:03.072Z,15.59
2023-04-15T11:00:35.184Z,15.80
2023-04-15T11:03:10.242Z,15.53
2023-04-15T11:05:42.680Z,14.71
2023-04-15T11:08:13.245Z,14.69
2023-04-15T11:10:42.030Z,15.49
2023-04-15T11:13:10.678Z,15.76
2023-04-15T11:15:45.289Z,17.36
2023-04-15T11:18:26.748Z,18.13
2023-04-15T11:21:01.234Z,19.23
2023-04-15T11:23:47.031Z,17.80
2023-04-15T11:26:27.341Z,17.66
2023-04-15T11:28:59.788Z,18.44
2023-04-15T11:31:29.151Z,18.48
2023-04-15T11:34:02.480Z,17.95
2023-04-15T11:36:34.509Z,17.63
2023-04-15T11:39:07.700Z,17.44
2023-04-15T11:41:36.799Z,19.40
2023-04-15T11:44:20.325Z,18.97
2023-04-15T11:46:49.436Z,19.07
2023-04-15T11:49:32.310Z,21.23
2023-04-15T11:52:00.800Z,21.27
2023-04-15T11:54:28.061Z,20.99
2023-04-15T11:56:56.727Z,22.60
2023-04-15T11:59:26.358Z,25.70
2023-04-15T12:01:56.449Z,27.43
2023-04-15T12:04:25.950Z,29.54
2023-04-15T12:06:53.978Z,31.33
2023-04-15T12:09:21.950Z,36.30
2023-04-15T12:12:09.049Z,37.63
2023-04-15T12:15:52.996Z,38.92
2023-04-15T12:18:41.462Z,37.36
2023-04-15T12:21:12.831Z,37.15
2023-04-15T12:23:58.124Z,33.43
2023-04-15T12:26:37.689Z,30.76
2023-04-15T12:29:09.772Z,29.29
2023-04-15T12:31:55.962Z,28.40
2023-04-15T12:34:37.690Z,30.23
2023-04-15T12:37:13.611Z,30.37
2023-04-15T12:39:46.686Z,31.72
2023-04-15T12:42:20.520Z,38.76
2023-04-15T12:44:49.377Z,43.44
2023-04-15T12:47:17.985Z,43.19
2023-04-15T12:49:53.595Z,46.82
2023-04-15T12:52:21.190Z,47.96
2023-04-15T12:54:48.609Z,48.70
2023-04-15T12:57:15.754Z,46.48
2023-04-15T12:59:42.844Z,53.47
2023-04-15T13:02:10.162Z,54.75
2023-04-15T13:04:37.373Z,57.38
2023-04-15T13:07:04.856Z,56.64
2023-04-15T13:09:32.356Z,58.60
2023-04-15T13:11:59.700Z,56.73
2023-04-15T13:14:27.153Z,59.55
2023-04-15T13:16:54.331Z,58.92
2023-04-15T13:19:21.619Z,57.56
2023-04-15T13:21:48.857Z,56.14
2023-04-15T13:24:17.475Z,49.11
2023-04-15T13:26:44.794Z,46.85
2023-04-15T13:29:12.367Z,49.43
2023-04-15T13:31:39.547Z,48.72
2023-04-15T13:34:12.214Z,50.48
2023-04-15T13:36:39.808Z,47.25
2023-04-15T13:39:07.626Z,43.63
2023-04-15T13:41:34.881Z,40.24
2023-04-15T13:44:02.916Z,38.13
2023-04-15T13:46:30.699Z,36.98
2023-04-15T13:48:58.845Z,38.89
2023-04-15T13:51:27.076Z,37.53
2023-04-15T13:53:54.582Z,36.99
2023-04-15T13:56:21.860Z,36.81
2023-04-15T13:58:49.324Z,37.02
2023-04-15T14:01:16.841Z,37.03
2023-04-15T14:03:44.793Z,37.25
2023-04-15T14:06:12.794Z,32.27
2023-04-15T14:08:40.490Z,32.58
2023-04-15T14:11:08.252Z,32.44
2023-04-15T14:13:36.482Z,31.87
2023-04-15T14:16:04.199Z,30.42
2023-04-15T14:18:31.358Z,29.90
2023-04-15T14:20:58.523Z,29.94
2023-04-15T14:23:26.097Z,29.67
2023-04-15T14:25:54.055Z,29.06
2023-04-15T14:28:21.350Z,29.71
2023-04-15T14:30:48.662Z,28.54
2023-04-15T14:33:16.267Z,29.72
2023-04-15T14:35:43.733Z,28.42
2023-04-15T14:38:11.814Z,28.03
2023-04-15T14:40:41.270Z,28.71
2023-04-15T14:43:09.391Z,28.90
2023-04-15T14:45:41.833Z,28.99
2023-04-15T14:48:12.545Z,28.90
2023-04-15T14:50:41.877Z,28.22
2023-04-15T14:53:10.518Z,28.40
2023-04-15T14:55:37.830Z,29.84
2023-04-15T14:58:06.509Z,29.53
2023-04-15T15:00:34.199Z,30.52
2023-04-15T15:03:02.306Z,30.17
2023-04-15T15:05:30.626Z,31.40
2023-04-15T15:07:58.075Z,31.01
2023-04-15T15:10:33.044Z,31.88
2023-04-15T15:13:13.125Z,31.76
2023-04-15T15:15:41.123Z,32.02
2023-04-15T15:18:08.786Z,32.36
2023-04-15T15:20:36.403Z,33.00
2023-04-15T15:23:04.176Z,33.39
2023-04-15T15:25:32.794Z,33.04
2023-04-15T15:28:00.419Z,34.13
2023-04-15T15:30:27.780Z,35.67
2023-04-15T15:32:55.249Z,35.88
2023-04-15T15:35:23.692Z,36.44
2023-04-15T15:37:51.442Z,37.89
2023-04-15T15:40:19.296Z,37.58
2023-04-15T15:42:50.103Z,37.37
2023-04-15T15:45:18.069Z,37.99
2023-04-15T15:47:45.782Z,37.68
2023-04-15T15:50:14.752Z,38.94
2023-04-15T15:52:42.647Z,40.85
2023-04-15T15:55:10.097Z,39.36
2023-04-15T15:57:37.312Z,41.77
2023-04-15T16:03:04.478Z,41.86
2023-04-15T16:05:25.879Z,41.43
2023-04-15T16:07:53.781Z,42.10
2023-04-15T16:10:21.572Z,40.46
2023-04-15T16:12:50.012Z,41.52
2023-04-15T16:15:17.373Z,42.61
2023-04-15T16:17:44.631Z,42.34
2023-04-15T16:20:11.969Z,44.15
2023-04-15T16:22:39.786Z,44.91
2023-04-15T16:25:08.046Z,48.92
2023-04-15T16:27:54.171Z,50.22
2023-04-15T16:30:24.096Z,53.37
2023-04-15T16:32:51.975Z,54.07
2023-04-15T16:35:19.961Z,56.05
2023-04-15T16:37:47.576Z,53.31
2023-04-15T16:40:15.678Z,54.80
2023-04-15T16:42:46.716Z,53.80
2023-04-15T16:45:13.922Z,55.00
2023-04-15T16:47:41.296Z,58.09
2023-04-15T16:50:10.781Z,53.84
2023-04-15T16:52:38.366Z,57.12
2023-04-15T16:55:06.382Z,56.08
2023-04-15T16:57:53.090Z,57.64
2023-04-15T17:00:21.189Z,59.86
2023-04-15T17:02:49.108Z,57.07
2023-04-15T17:05:19.656Z,57.86
2023-04-15T17:07:47.469Z,60.51
2023-04-15T17:10:15.110Z,63.64
2023-04-15T17:12:42.536Z,63.05
2023-04-15T17:15:10.277Z,61.96
2023-04-15T17:17:37.719Z,62.77
2023-04-15T17:20:06.020Z,62.00
2023-04-15T17:22:34.400Z,62.63
2023-04-15T17:25:03.250Z,63.65
2023-04-15T17:27:34.456Z,64.96
2023-04-15T17:30:10.664Z,65.51
2023-04-15T17:32:57.942Z,66.39
2023-04-15T17:35:45.503Z,68.16
2023-04-15T17:38:33.478Z,68.16
2023-04-15T17:41:20.549Z,68.23
2023-04-15T17:44:07.830Z,67.93
2023-04-15T17:46:55.428Z,69.35
2023-04-15T17:49:44.250Z,69.35
2023-04-15T17:52:31.655Z,70.43
2023-04-15T17:55:19.056Z,70.31
2023-04-15T17:58:06.621Z,69.86
2023-04-15T18:00:53.749Z,69.78
2023-04-15T18:03:41.697Z,69.44
2023-04-15T18:06:29.551Z,69.36
2023-04-15T18:09:17.346Z,70.79
2023-04-15T18:12:07.462Z,71.05
2023-04-15T18:14:54.657Z,69.91
2023-04-15T18:17:41.977Z,70.63
2023-04-15T18:20:15.642Z,70.86
2023-04-15T18:22:46.268Z,71.13
2023-04-15T18:25:14.144Z,71.58
2023-04-15T18:27:41.532Z,71.69
2023-04-15T18:30:11.472Z,70.95
2023-04-15T18:32:39.578Z,71.57
2023-04-15T18:35:08.166Z,71.00
2023-04-15T18:37:35.903Z,70.75
2023-04-15T18:40:03.493Z,71.62
2023-04-15T18:42:30.791Z,71.81
2023-04-15T18:44:58.412Z,71.38
2023-04-15T18:47:27.917Z,72.02
2023-04-15T18:49:55.864Z,71.98
2023-04-15T18:52:23.369Z,72.09
2023-04-15T18:54:50.716Z,72.31
2023-04-15T18:57:24.561Z,71.73
2023-04-15T18:59:59.193Z,72.39
2023-04-15T19:02:27.109Z,73.64
2023-04-15T19:04:54.671Z,73.15
2023-04-15T19:07:23.017Z,72.76
2023-04-15T19:09:50.593Z,72.92
2023-04-15T19:12:17.852Z,73.03
2023-04-15T19:14:44.996Z,72.08
2023-04-15T19:17:12.189Z,72.85
2023-04-15T19:19:39.426Z,72.99
2023-04-15T19:22:09.642Z,73.17
2023-04-15T19:24:37.409Z,73.93
2023-04-15T19:27:04.795Z,74.14
2023-04-15T19:29:32.004Z,73.77
2023-04-15T19:31:59.128Z,73.04
2023-04-15T19:34:27.064Z,72.95
2023-04-15T19:36:54.483Z,72.38
2023-04-15T19:39:21.743Z,72.84
2023-04-15T19:41:48.993Z,72.83
2023-04-15T19:44:16.329Z,73.06
2023-04-15T19:46:44.894Z,73.15
2023-04-15T19:49:12.725Z,73.35
2023-04-15T19:51:41.609Z,73.28
2023-04-15T19:54:09.135Z,73.31
2023-04-15T19:56:36.487Z,74.01
2023-04-15T19:59:04.087Z,73.26
2023-04-15T20:01:32.204Z,74.39
2023-04-15T20:03:59.907Z,73.03
2023-04-15T20:06:28.488Z,72.44
2023-04-15T20:08:56.271Z,72.76
2023-04-15T20:12:09.659Z,72.58
2023-04-15T20:14:17.553Z,72.96
2023-04-15T20:16:45.041Z,73.93
2023-04-15T20:19:13.291Z,73.84
2023-04-15T20:21:40.806Z,74.43
2023-04-15T20:24:09.944Z,74.07
2023-04-15T20:26:37.253Z,73.89
2023-04-15T20:29:04.842Z,73.08
2023-04-15T20:31:32.387Z,73.02
2023-04-15T20:33:59.549Z,73.48
2023-04-15T20:36:26.801Z,72.64
2023-04-15T20:38:53.978Z,73.13
2023-04-15T20:41:22.062Z,74.14
2023-04-15T20:43:49.618Z,72.53
2023-04-15T20:46:21.493Z,73.87
2023-04-15T20:48:49.635Z,72.47
2023-04-15T20:51:18.035Z,73.19
2023-04-15T20:53:45.483Z,73.29
2023-04-15T20:56:12.639Z,72.89
2023-04-15T20:58:39.939Z,73.33
2023-04-15T21:01:07.264Z,73.74
2023-04-15T21:03:34.776Z,74.32
2023-04-15T21:06:02.645Z,73.41
2023-04-15T21:08:31.731Z,72.71
2023-04-15T21:10:59.572Z,72.94
2023-04-15T21:13:26.816Z,72.02
2023-04-15T21:15:54.362Z,72.89
2023-04-15T21:18:22.662Z,73.60
2023-04-15T21:21:16.843Z,72.81
2023-04-15T21:23:44.701Z,73.69
2023-04-15T21:26:12.502Z,74.77
2023-04-15T21:28:39.901Z,74.92
2023-04-15T21:31:07.262Z,74.08
2023-04-15T21:33:34.463Z,73.25
2023-04-15T21:36:02.044Z,73.32
2023-04-15T21:38:29.705Z,73.20
2023-04-15T21:40:57.641Z,73.56
2023-04-15T21:43:25.843Z,73.60
2023-04-15T21:46:24.254Z,72.98
2023-04-15T21:48:56.122Z,73.67
2023-04-15T21:51:23.477Z,73.20
2023-04-15T21:53:52.535Z,72.62
2023-04-15T21:56:21.616Z,72.95
2023-04-15T21:58:49.092Z,73.27
2023-04-15T22:01:16.844Z,73.38
2023-04-15T22:03:44.762Z,73.98
2023-04-15T22:06:13.795Z,73.29
2023-04-15T22:08:54.857Z,74.41
2023-04-15T22:11:28.437Z,73.13
2023-04-15T22:13:58.416Z,72.71
2023-04-15T22:16:26.893Z,73.39
2023-04-15T22:18:55.628Z,72.41
2023-04-15T22:21:23.677Z,73.76
2023-04-15T22:24:38.182Z,72.95
2023-04-15T22:26:45.538Z,73.26
2023-04-15T22:29:12.817Z,73.17
2023-04-15T22:31:40.022Z,72.69
2023-04-15T22:34:12.020Z,72.75
2023-04-15T22:36:39.354Z,72.79
2023-04-15T22:39:06.691Z,72.58
2023-04-15T22:41:34.211Z,72.92
2023-04-15T22:44:01.622Z,72.50
2023-04-15T22:46:29.323Z,74.12
2023-04-15T22:48:57.269Z,73.33
2023-04-15T22:51:29.301Z,73.41
2023-04-15T22:53:56.599Z,72.86
2023-04-15T22:56:24.304Z,72.10
2023-04-15T22:58:52.000Z,71.24
2023-04-15T23:01:25.699Z,72.25
2023-04-15T23:03:57.768Z,72.97
2023-04-15T23:06:31.885Z,72.01
2023-04-15T23:09:00.248Z,72.28
2023-04-15T23:11:27.702Z,72.65
2023-04-15T23:13:54.816Z,72.44
2023-04-15T23:16:23.081Z,72.40
2023-04-15T23:18:50.395Z,71.99
2023-04-15T23:21:17.610Z,73.10
2023-04-15T23:23:45.366Z,72.28
2023-04-15T23:26:13.164Z,72.42
2023-04-15T23:28:40.468Z,72.21
2023-04-15T23:31:07.671Z,72.27
2023-04-15T23:33:34.856Z,72.15
2023-04-15T23:36:02.508Z,72.45
2023-04-15T23:38:30.020Z,73.44
2023-04-15T23:40:57.179Z,72.97
2023-04-15T23:43:24.464Z,72.82
2023-04-15T23:45:57.106Z,72.39
2023-04-15T23:48:24.454Z,72.11
2023-04-15T23:50:52.799Z,72.71
2023-04-15T23:53:20.149Z,72.39
2023-04-15T23:55:48.981Z,73.24
2023-04-15T23:58:16.168Z,72.86
